Time;durP1;ratioP1;P1;durP2;ratioP2;P2;SDS_P1;SDS_P2;PMS_P1;PMS_P2;Temp;Humidity;BMP_temperature;BMP_pressure;BME280_temperature;BME280_humidity;BME280_pressure;Samples;Min_cycle;Max_cycle;Signal;HPM_P1;HPM_P2
2023/05/01 00:00:08;;;;;;;3.83;2.03;;;15.20;1.00;;;;;;5058620;28;20025;-63
2023/05/01 00:02:36;;;;;;;3.17;2.08;;;15.20;1.00;;;;;;5058392;28;20044;-63
2023/05/01 00:05:02;;;;;;;2.65;2.08;;;15.10;1.00;;;;;;5058355;28;20049;-63
2023/05/01 00:07:29;;;;;;;3.90;2.10;;;15.10;1.00;;;;;;5058219;28;20037;-62
2023/05/01 00:09:58;;;;;;;2.78;1.90;;;15.00;1.00;;;;;;5059029;28;20056;-63
2023/05/01 00:12:25;;;;;;;3.88;2.33;;;14.90;1.00;;;;;;5059046;28;20427;-63
2023/05/01 00:14:52;;;;;;;2.88;2.15;;;14.90;1.00;;;;;;5058971;28;20057;-63
2023/05/01 00:17:18;;;;;;;2.85;1.92;;;14.90;1.00;;;;;;5074736;28;20029;-63
2023/05/01 00:19:44;;;;;;;3.28;2.30;;;14.90;1.00;;;;;;5058275;28;20037;-64
2023/05/01 00:22:09;;;;;;;3.65;2.13;;;15.00;1.00;;;;;;5058777;28;20040;-63
2023/05/01 00:24:36;;;;;;;3.25;2.05;;;15.00;1.00;;;;;;5058843;28;20064;-63
2023/05/01 00:27:02;;;;;;;2.20;1.75;;;15.00;1.00;;;;;;5058770;28;20040;-63
2023/05/01 00:29:28;;;;;;;3.00;2.10;;;15.00;1.00;;;;;;5057925;28;20036;-64
2023/05/01 00:31:54;;;;;;;2.60;1.88;;;15.00;1.00;;;;;;5041157;28;20028;-64
2023/05/01 00:34:21;;;;;;;3.45;2.35;;;14.90;1.00;;;;;;5057833;28;20029;-63
2023/05/01 00:36:46;;;;;;;3.63;2.30;;;14.80;1.00;;;;;;5058077;28;20104;-63
2023/05/01 00:39:12;;;;;;;2.67;1.83;;;14.80;1.00;;;;;;5041238;28;20120;-64
2023/05/01 00:41:38;;;;;;;2.10;1.90;;;14.80;1.00;;;;;;5041497;28;20094;-63
2023/05/01 00:44:04;;;;;;;2.22;2.03;;;14.80;1.00;;;;;;5058432;28;20048;-64
2023/05/01 00:46:32;;;;;;;4.47;2.30;;;14.80;1.00;;;;;;5074305;28;20037;-63
2023/05/01 00:48:58;;;;;;;3.53;2.15;;;14.70;1.00;;;;;;5057589;28;20127;-64
2023/05/01 00:51:27;;;;;;;4.60;2.28;;;14.70;1.00;;;;;;5057594;28;20065;-63
2023/05/01 00:53:54;;;;;;;2.97;2.30;;;14.70;1.00;;;;;;5057574;28;20033;-64
2023/05/01 00:56:20;;;;;;;3.25;2.00;;;14.70;1.00;;;;;;5057473;28;20388;-64
2023/05/01 00:58:52;;;;;;;3.53;1.92;;;14.70;1.00;;;;;;5024296;28;20094;-63
2023/05/01 01:01:20;;;;;;;3.53;2.08;;;14.70;1.00;;;;;;5058146;28;20035;-63
2023/05/01 01:03:46;;;;;;;3.45;2.28;;;14.70;1.00;;;;;;5057029;28;20068;-63
2023/05/01 01:06:12;;;;;;;3.13;2.25;;;14.70;1.00;;;;;;5058023;28;20040;-63
2023/05/01 01:09:22;;;;;;;2.28;2.00;;;14.70;1.00;;;;;;5058011;28;20033;-63
2023/05/01 01:12:10;;;;;;;2.97;1.85;;;14.80;1.00;;;;;;5032164;28;20443;-63
2023/05/01 01:14:49;;;;;;;5.78;2.08;;;14.80;1.00;;;;;;5057716;28;20036;-64
2023/05/01 01:17:18;;;;;;;2.03;1.88;;;14.70;1.00;;;;;;5057810;28;20344;-64
2023/05/01 01:20:09;;;;;;;2.38;1.92;;;14.70;1.00;;;;;;5056975;28;20364;-64
2023/05/01 01:22:38;;;;;;;3.42;1.92;;;14.60;1.00;;;;;;5057754;28;20033;-63
2023/05/01 01:25:40;;;;;;;3.72;2.50;;;14.60;1.00;;;;;;5073510;28;20036;-63
2023/05/01 01:28:33;;;;;;;2.25;2.00;;;14.50;1.00;;;;;;5040287;28;20087;-63
2023/05/01 01:31:03;;;;;;;;;;;14.50;1.00;;;;;;5057954;28;20082;-63
2023/05/01 01:33:47;;;;;;;2.60;1.70;;;14.50;1.00;;;;;;5056844;28;19909;-63
2023/05/01 01:36:45;;;;;;;2.10;1.90;;;14.50;1.00;;;;;;5040164;28;20029;-63
2023/05/01 01:39:26;;;;;;;3.47;2.13;;;14.50;1.00;;;;;;5057401;28;20029;-63
2023/05/01 01:41:53;;;;;;;3.63;1.95;;;14.50;1.00;;;;;;5057427;28;20029;-63
2023/05/01 01:44:46;;;;;;;2.25;1.90;;;14.50;1.00;;;;;;5056565;28;20052;-64
2023/05/01 01:47:14;;;;;;;4.40;1.85;;;14.50;1.00;;;;;;5052067;28;20094;-63
2023/05/01 01:49:45;;;;;;;2.80;1.90;;;14.50;1.00;;;;;;5057244;28;20036;-63
2023/05/01 01:52:14;;;;;;;2.92;1.70;;;14.40;1.00;;;;;;5057254;28;20029;-63
2023/05/01 01:54:46;;;;;;;3.10;1.90;;;14.40;1.00;;;;;;5057268;28;20044;-63
2023/05/01 01:57:15;;;;;;;2.85;1.98;;;14.40;1.00;;;;;;5057192;28;20387;-63
2023/05/01 01:59:43;;;;;;;3.05;1.85;;;14.40;1.00;;;;;;5056347;28;20033;-64
2023/05/01 02:02:10;;;;;;;3.45;2.10;;;14.40;1.00;;;;;;5039565;28;20020;-64
2023/05/01 02:04:38;;;;;;;4.05;2.10;;;14.40;1.00;;;;;;5056235;28;20408;-64
2023/05/01 02:07:06;;;;;;;2.13;1.67;;;14.50;1.00;;;;;;5057062;28;20405;-64
2023/05/01 02:09:34;;;;;;;4.00;1.90;;;14.50;1.00;;;;;;5056172;28;20033;-65
2023/05/01 02:12:02;;;;;;;4.03;2.10;;;14.50;1.00;;;;;;5039683;28;20021;-64
2023/05/01 02:14:28;;;;;;;3.47;2.25;;;14.50;1.00;;;;;;5056169;28;20029;-65
2023/05/01 02:16:56;;;;;;;3.05;2.08;;;14.40;1.00;;;;;;5056184;28;20025;-63
2023/05/01 02:19:22;;;;;;;3.35;1.65;;;14.40;1.00;;;;;;5056469;28;20040;-63
2023/05/01 02:21:51;;;;;;;2.83;1.80;;;14.40;1.00;;;;;;5056113;28;20037;-63
2023/05/01 02:24:18;;;;;;;4.60;2.10;;;14.40;1.00;;;;;;5056994;28;20112;-63
2023/05/01 02:26:53;;;;;;;2.85;1.98;;;14.30;1.00;;;;;;5056777;28;20037;-63
2023/05/01 02:29:20;;;;;;;2.92;1.85;;;14.40;1.00;;;;;;5056189;28;20033;-64
2023/05/01 02:31:46;;;;;;;3.08;1.90;;;14.30;1.00;;;;;;5055893;28;20107;-63
2023/05/01 02:34:13;;;;;;;2.75;1.95;;;14.30;1.00;;;;;;5039486;28;20315;-64
2023/05/01 02:36:39;;;;;;;3.13;2.08;;;14.20;1.00;;;;;;5056051;28;20044;-64
2023/05/01 02:39:05;;;;;;;2.67;1.60;;;14.30;1.00;;;;;;5039402;28;20029;-64
2023/05/01 02:41:33;;;;;;;6.68;1.75;;;14.30;1.00;;;;;;5039808;28;20044;-64
2023/05/01 02:44:05;;;;;;;6.45;2.58;;;14.30;1.00;;;;;;5056594;28;20282;-64
2023/05/01 02:46:36;;;;;;;6.53;2.40;;;14.30;1.00;;;;;;5055857;28;20029;-64
2023/05/01 02:49:03;;;;;;;4.38;2.30;;;14.30;1.00;;;;;;5072572;28;20048;-63
2023/05/01 02:51:30;;;;;;;3.22;2.05;;;14.30;1.00;;;;;;5056406;28;20471;-63
2023/05/01 02:53:58;;;;;;;2.80;2.00;;;14.30;1.00;;;;;;5072418;28;20036;-63
2023/05/01 02:56:28;;;;;;;3.83;2.50;;;14.20;1.00;;;;;;5039147;28;20104;-64
2023/05/01 02:58:55;;;;;;;4.45;2.17;;;14.30;1.00;;;;;;5056387;28;20041;-63
2023/05/01 03:01:21;;;;;;;5.05;2.47;;;14.20;1.00;;;;;;5056463;28;20130;-64
2023/05/01 03:03:47;;;;;;;5.93;2.28;;;14.20;1.00;;;;;;5056327;28;20040;-63
2023/05/01 03:06:15;;;;;;;3.72;2.50;;;14.20;1.00;;;;;;5056170;28;20036;-63
2023/05/01 03:08:42;;;;;;;2.90;2.22;;;14.20;1.00;;;;;;5056236;28;20060;-64
2023/05/01 03:11:08;;;;;;;5.03;2.55;;;14.20;1.00;;;;;;5039336;28;20399;-63
2023/05/01 03:13:34;;;;;;;3.85;2.60;;;14.20;1.00;;;;;;5055578;28;20025;-63
2023/05/01 03:16:00;;;;;;;3.78;2.20;;;14.20;1.00;;;;;;5055519;28;20052;-64
2023/05/01 03:18:26;;;;;;;3.78;2.10;;;14.10;1.00;;;;;;5056260;28;20027;-64
2023/05/01 03:20:58;;;;;;;3.97;2.20;;;14.10;1.00;;;;;;5056309;28;20041;-64
2023/05/01 03:23:26;;;;;;;4.50;2.22;;;14.00;1.00;;;;;;5039553;28;20087;-63
2023/05/01 03:25:53;;;;;;;3.63;2.50;;;14.00;1.00;;;;;;5039074;28;20044;-64
2023/05/01 03:28:22;;;;;;;4.57;2.30;;;14.00;1.00;;;;;;5055587;28;20132;-64
2023/05/01 03:30:52;;;;;;;2.95;2.15;;;14.00;1.00;;;;;;5039306;28;20040;-64
2023/05/01 03:33:19;;;;;;;4.35;2.42;;;14.00;1.00;;;;;;5055515;28;20331;-64
2023/05/01 03:35:45;;;;;;;4.05;2.20;;;14.00;1.00;;;;;;5023222;28;20033;-64
2023/05/01 03:38:10;;;;;;;6.60;2.53;;;14.00;1.00;;;;;;5059067;28;20029;-64
2023/05/01 03:41:04;;;;;;;4.50;2.55;;;14.00;1.00;;;;;;5044156;28;20099;-64
2023/05/01 03:43:49;;;;;;;3.50;2.60;;;14.00;1.00;;;;;;5059302;28;20095;-64
2023/05/01 03:46:37;;;;;;;3.30;2.38;;;13.90;1.00;;;;;;5058832;28;20048;-63
2023/05/01 03:49:05;;;;;;;4.07;2.63;;;13.90;1.00;;;;;;5058711;28;20121;-64
2023/05/01 03:51:36;;;;;;;6.25;2.70;;;13.90;1.00;;;;;;5042959;28;20310;-64
2023/05/01 03:54:02;;;;;;;3.20;2.28;;;13.90;1.00;;;;;;5058604;28;20044;-63
2023/05/01 03:56:35;;;;;;;6.15;2.47;;;13.90;1.00;;;;;;5027314;28;20120;-62
2023/05/01 03:59:02;;;;;;;2.63;2.40;;;13.90;1.80;;;;;;5058572;28;20037;-63
2023/05/01 04:01:28;;;;;;;4.15;2.70;;;13.90;1.70;;;;;;5058379;28;20316;-63
2023/05/01 04:03:54;;;;;;;3.75;3.05;;;13.90;1.00;;;;;;5041684;28;20194;-63
2023/05/01 04:06:21;;;;;;;2.53;2.28;;;13.80;1.00;;;;;;5058405;28;20384;-64
2023/05/01 04:08:47;;;;;;;4.15;2.63;;;13.80;1.20;;;;;;5058307;28;20427;-63
2023/05/01 04:11:13;;;;;;;3.22;2.60;;;13.70;2.80;;;;;;5058374;28;20041;-63
2023/05/01 04:13:39;;;;;;;4.13;2.60;;;13.80;3.20;;;;;;5058256;28;20040;-62
2023/05/01 04:16:06;;;;;;;3.25;2.70;;;13.70;3.40;;;;;;5058519;28;20416;-64
2023/05/01 04:18:32;;;;;;;5.10;2.70;;;13.70;9.50;;;;;;5059119;28;20040;-64
2023/05/01 04:20:58;;;;;;;3.13;2.53;;;13.80;8.20;;;;;;5058100;28;20091;-63
2023/05/01 04:23:24;;;;;;;3.45;2.60;;;13.90;9.30;;;;;;5041644;28;20032;-64
2023/05/01 04:25:53;;;;;;;4.07;2.58;;;13.90;12.30;;;;;;5041940;28;20373;-63
2023/05/01 04:28:19;;;;;;;6.88;2.80;;;13.90;7.60;;;;;;5057773;28;20095;-63
2023/05/01 04:30:45;;;;;;;4.82;3.10;;;13.90;4.60;;;;;;5057905;28;20036;-63
2023/05/01 04:33:11;;;;;;;4.70;3.30;;;13.80;10.10;;;;;;5041362;28;20056;-63
2023/05/01 04:35:38;;;;;;;5.13;3.00;;;13.90;9.10;;;;;;5057901;28;20033;-63
2023/05/01 04:38:06;;;;;;;5.22;2.88;;;14.00;2.10;;;;;;5057957;28;20029;-62
2023/05/01 04:40:33;;;;;;;4.50;2.80;;;13.90;5.90;;;;;;5057842;28;20025;-63
2023/05/01 04:42:59;;;;;;;3.63;3.13;;;13.80;8.10;;;;;;5057753;28;20037;-63
2023/05/01 04:45:25;;;;;;;4.78;3.08;;;13.70;10.80;;;;;;5058506;28;20025;-63
2023/05/01 04:47:52;;;;;;;4.28;3.10;;;13.70;17.70;;;;;;5057375;28;20021;-63
2023/05/01 04:50:19;;;;;;;4.22;3.13;;;13.80;17.80;;;;;;5024817;28;20067;-63
2023/05/01 04:52:46;;;;;;;4.03;2.78;;;13.90;16.80;;;;;;5057397;28;20152;-64
2023/05/01 04:55:12;;;;;;;4.57;3.00;;;13.80;16.20;;;;;;5057421;28;20032;-64
2023/05/01 04:57:48;;;;;;;2.92;2.47;;;13.90;16.10;;;;;;5057641;28;20030;-63
2023/05/01 05:00:15;;;;;;;6.60;3.42;;;14.00;16.50;;;;;;5040877;28;20040;-65
2023/05/01 05:02:49;;;;;;;3.95;2.97;;;14.00;17.70;;;;;;5041879;28;20032;-64
2023/05/01 05:05:15;;;;;;;5.30;3.10;;;14.10;14.20;;;;;;5024308;28;20041;-63
2023/05/01 05:07:41;;;;;;;4.22;2.85;;;14.20;11.10;;;;;;5024316;28;20037;-64
2023/05/01 05:10:27;;;;;;;4.75;3.10;;;14.20;10.00;;;;;;5057049;28;20415;-64
2023/05/01 05:13:08;;;;;;;4.00;2.97;;;14.10;2.20;;;;;;5057118;28;20021;-64
2023/05/01 05:15:35;;;;;;;4.07;3.38;;;14.20;4.10;;;;;;5040773;28;20037;-64
2023/05/01 05:18:02;;;;;;;3.13;2.70;;;14.20;5.10;;;;;;5057045;28;20025;-65
2023/05/01 05:20:30;;;;;;;8.05;3.47;;;14.20;5.10;;;;;;5056893;28;20328;-64
2023/05/01 05:22:56;;;;;;;4.68;3.13;;;14.10;9.60;;;;;;5056946;28;20073;-64
2023/05/01 05:25:23;;;;;;;6.22;3.22;;;14.10;10.00;;;;;;5056863;28;20048;-64
2023/05/01 05:27:49;;;;;;;4.72;3.58;;;14.00;11.90;;;;;;5056784;28;20420;-63
2023/05/01 05:30:15;;;;;;;6.53;3.47;;;14.20;5.90;;;;;;5056764;28;20067;-63
2023/05/01 05:32:43;;;;;;;4.70;3.05;;;14.20;1.00;;;;;;5056769;28;20120;-63
2023/05/01 05:35:09;;;;;;;6.20;3.53;;;14.30;1.00;;;;;;5056705;28;20033;-64
2023/05/01 05:37:35;;;;;;;5.13;3.40;;;14.30;1.00;;;;;;5056937;28;20442;-63
2023/05/01 05:40:01;;;;;;;4.38;3.50;;;14.40;1.00;;;;;;5039978;28;20412;-63
2023/05/01 05:42:30;;;;;;;5.38;3.60;;;14.40;1.00;;;;;;5057370;28;20036;-63
2023/05/01 05:45:02;;;;;;;4.57;3.43;;;14.50;1.00;;;;;;5056430;28;20037;-64
2023/05/01 05:47:28;;;;;;;4.07;3.22;;;14.50;1.00;;;;;;5056401;28;20036;-64
2023/05/01 05:49:54;;;;;;;6.47;3.70;;;14.60;1.00;;;;;;5057305;28;20071;-64
2023/05/01 05:52:20;;;;;;;5.57;3.80;;;14.70;1.00;;;;;;5056338;28;20029;-65
2023/05/01 05:54:46;;;;;;;5.97;3.63;;;14.60;1.00;;;;;;5056488;28;20040;-64
2023/05/01 05:57:12;;;;;;;4.43;3.53;;;14.70;1.00;;;;;;5056328;28;20442;-62
2023/05/01 05:59:43;;;;;;;5.25;3.88;;;14.70;1.00;;;;;;5055474;28;20044;-61
2023/05/01 06:02:11;;;;;;;6.53;3.90;;;14.70;1.00;;;;;;5072912;28;20025;-62
2023/05/01 06:04:37;;;;;;;5.82;4.25;;;14.70;1.00;;;;;;5056118;28;20051;-61
2023/05/01 06:07:05;;;;;;;4.95;3.42;;;14.80;1.00;;;;;;5039844;28;20032;-62
2023/05/01 06:09:30;;;;;;;6.53;3.65;;;14.70;1.00;;;;;;5056929;28;20352;-62
2023/05/01 06:11:57;;;;;;;4.97;3.80;;;14.80;1.00;;;;;;5057445;28;20041;-62
2023/05/01 06:14:23;;;;;;;6.53;4.07;;;14.80;1.00;;;;;;5056326;28;20064;-63
2023/05/01 06:16:49;;;;;;;6.00;3.88;;;14.80;1.00;;;;;;5056238;28;20056;-62
2023/05/01 06:19:15;;;;;;;5.43;4.38;;;14.90;1.00;;;;;;5056806;28;20112;-61
2023/05/01 06:21:41;;;;;;;5.68;3.90;;;14.80;1.00;;;;;;5056085;28;20032;-62
2023/05/01 06:24:09;;;;;;;4.28;3.88;;;14.90;1.00;;;;;;5056064;28;20273;-62
2023/05/01 06:26:44;;;;;;;5.18;3.88;;;14.80;1.00;;;;;;5073680;28;20276;-62
2023/05/01 06:29:10;;;;;;;6.10;4.20;;;14.80;1.00;;;;;;5055974;28;20119;-62
2023/05/01 06:31:36;;;;;;;6.20;4.30;;;14.90;1.00;;;;;;5055883;28;20044;-62
2023/05/01 06:34:02;;;;;;;5.95;4.20;;;14.90;1.00;;;;;;5056030;28;20033;-62
2023/05/01 06:36:34;;;;;;;6.28;4.22;;;15.10;1.00;;;;;;5040266;28;20029;-63
2023/05/01 06:39:00;;;;;;;5.45;3.63;;;15.20;1.00;;;;;;5055839;28;20036;-62
2023/05/01 06:41:26;;;;;;;7.07;4.43;;;15.20;1.00;;;;;;5056709;28;20523;-62
2023/05/01 06:43:52;;;;;;;7.25;4.10;;;15.10;1.00;;;;;;5055775;28;20040;-61
2023/05/01 06:46:18;;;;;;;4.38;3.97;;;15.00;1.00;;;;;;5056599;28;20059;-61
2023/05/01 06:48:45;;;;;;;5.28;4.05;;;15.00;1.00;;;;;;5039418;28;20037;-61
2023/05/01 06:51:14;;;;;;;5.05;3.70;;;14.90;1.00;;;;;;5056083;28;20110;-61
2023/05/01 06:53:40;;;;;;;5.40;3.60;;;14.70;1.00;;;;;;5039481;28;20035;-63
2023/05/01 06:56:07;;;;;;;5.00;3.58;;;14.90;1.00;;;;;;5055722;28;20120;-61
2023/05/01 06:58:33;;;;;;;7.75;4.35;;;15.20;1.00;;;;;;5056393;28;20080;-62
2023/05/01 07:00:59;;;;;;;5.60;3.70;;;15.30;1.00;;;;;;5072320;28;20404;-64
2023/05/01 07:03:27;;;;;;;6.78;3.65;;;15.60;1.00;;;;;;5055440;28;20047;-62
2023/05/01 07:05:54;;;;;;;6.88;4.00;;;15.80;1.00;;;;;;5055610;28;20033;-64
2023/05/01 07:08:20;;;;;;;5.90;3.80;;;16.00;1.00;;;;;;5056362;28;20033;-61
2023/05/01 07:10:46;;;;;;;8.27;3.95;;;15.50;1.00;;;;;;5058761;28;20044;-62
2023/05/01 07:13:12;;;;;;;6.82;4.32;;;15.60;1.00;;;;;;5059524;28;20352;-61
2023/05/01 07:15:38;;;;;;;6.32;4.05;;;15.70;1.00;;;;;;5059358;28;20029;-61
2023/05/01 07:18:07;;;;;;;6.07;3.88;;;15.50;1.00;;;;;;5060038;28;20040;-62
2023/05/01 07:20:36;;;;;;;6.03;4.18;;;15.50;1.00;;;;;;5060201;28;20028;-63
2023/05/01 07:23:02;;;;;;;5.45;3.83;;;15.70;1.00;;;;;;5059730;28;20036;-62
2023/05/01 07:25:28;;;;;;;4.22;3.83;;;15.60;1.00;;;;;;5059902;28;20036;-64
2023/05/01 07:27:54;;;;;;;4.40;3.80;;;15.90;1.00;;;;;;5059895;28;20041;-63
2023/05/01 07:30:20;;;;;;;6.75;4.35;;;16.10;1.00;;;;;;5059044;28;20029;-64
2023/05/01 07:32:46;;;;;;;4.82;4.15;;;15.80;1.00;;;;;;5060129;28;20167;-66
2023/05/01 07:35:12;;;;;;;6.50;3.92;;;15.80;1.00;;;;;;5058956;28;20130;-65
2023/05/01 07:37:38;;;;;;;4.80;3.42;;;16.10;1.00;;;;;;5059599;28;20029;-67
2023/05/01 07:40:04;;;;;;;5.95;4.20;;;16.30;1.00;;;;;;5058701;28;20033;-63
2023/05/01 07:42:30;;;;;;;6.97;4.28;;;16.40;1.00;;;;;;5059654;28;20029;-67
2023/05/01 07:44:56;;;;;;;5.50;4.47;;;16.50;1.00;;;;;;5059080;28;20094;-67
2023/05/01 07:47:22;;;;;;;6.65;4.72;;;16.70;1.00;;;;;;5058823;28;20412;-65
2023/05/01 07:49:48;;;;;;;6.25;5.15;;;17.00;1.00;;;;;;5059337;28;20035;-71
2023/05/01 07:52:14;;;;;;;7.20;5.22;;;17.40;1.00;;;;;;5025919;28;20370;-68
2023/05/01 07:54:40;;;;;;;7.28;4.65;;;17.50;1.00;;;;;;5059531;28;20033;-63
2023/05/01 07:57:06;;;;;;;7.47;6.50;;;17.70;1.00;;;;;;5059247;28;20067;-63
2023/05/01 07:59:32;;;;;;;7.53;6.82;;;18.00;1.00;;;;;;5058656;28;20021;-67
2023/05/01 08:01:58;;;;;;;8.40;7.50;;;18.30;1.00;;;;;;5058837;28;20120;-69
2023/05/01 08:04:24;;;;;;;9.68;8.18;;;18.40;1.00;;;;;;5041668;28;20045;-70
2023/05/01 08:06:50;;;;;;;8.88;7.97;;;18.70;99.90;;;;;;5059307;28;20408;-65
2023/05/01 08:09:16;;;;;;;9.30;8.20;;;18.70;99.90;;;;;;5041433;28;20033;-61
2023/05/01 08:11:42;;;;;;;8.85;7.93;;;18.20;1.00;;;;;;5059027;28;20037;-65
2023/05/01 08:14:08;;;;;;;8.40;7.55;;;18.20;1.00;;;;;;5058203;28;20040;-67
2023/05/01 08:16:34;;;;;;;9.27;7.78;;;18.50;1.00;;;;;;5041678;28;20047;-69
2023/05/01 08:19:00;;;;;;;8.70;7.63;;;18.60;1.00;;;;;;5058980;28;20090;-69
2023/05/01 08:21:26;;;;;;;10.70;9.57;;;18.90;99.90;;;;;;5057671;28;20113;-70
2023/05/01 08:23:54;;;;;;;10.32;9.40;;;18.80;99.90;;;;;;5058391;28;20029;-73
2023/05/01 08:26:20;;;;;;;10.57;9.43;;;18.80;99.90;;;;;;5058928;28;20423;-68
2023/05/01 08:28:47;;;;;;;11.75;9.13;;;18.60;99.90;;;;;;5057922;28;20051;-64
2023/05/01 08:31:13;;;;;;;10.52;9.40;;;18.50;99.90;;;;;;5057860;28;20431;-70
2023/05/01 08:33:43;;;;;;;10.52;9.48;;;18.40;1.00;;;;;;5057742;28;20033;-69
2023/05/01 08:36:10;;;;;;;10.45;9.45;;;18.60;1.00;;;;;;5057736;28;20029;-67
2023/05/01 08:38:38;;;;;;;11.65;9.98;;;18.80;1.00;;;;;;5058476;28;20262;-65
2023/05/01 08:41:05;;;;;;;11.45;10.23;;;18.40;1.00;;;;;;5058611;28;20033;-66
2023/05/01 08:43:31;;;;;;;15.00;10.55;;;18.50;1.00;;;;;;5057763;28;20025;-68
2023/05/01 08:46:01;;;;;;;11.60;10.40;;;18.80;1.00;;;;;;5058480;28;20090;-66
2023/05/01 08:48:29;;;;;;;11.13;10.02;;;19.20;99.90;;;;;;5057834;28;20039;-71
2023/05/01 08:50:59;;;;;;;11.85;10.60;;;19.30;99.90;;;;;;5040892;28;20313;-63
2023/05/01 08:53:26;;;;;;;11.88;10.68;;;19.50;99.90;;;;;;5058541;28;20052;-67
2023/05/01 08:55:55;;;;;;;12.15;10.95;;;19.70;99.90;;;;;;5057495;28;20047;-66
2023/05/01 08:58:23;;;;;;;11.73;10.52;;;19.70;99.90;;;;;;5058131;28;20269;-63
2023/05/01 09:00:49;;;;;;;12.75;11.43;;;19.80;99.90;;;;;;5074088;28;20107;-67
2023/05/01 09:03:16;;;;;;;11.15;10.05;;;19.60;99.90;;;;;;5040301;28;20384;-65
2023/05/01 09:05:42;;;;;;;12.77;10.90;;;19.70;99.90;;;;;;5024463;28;20056;-65
2023/05/01 09:08:08;;;;;;;12.50;10.35;;;19.60;99.90;;;;;;5057298;28;20037;-67
2023/05/01 09:10:41;;;;;;;12.80;11.43;;;19.70;99.90;;;;;;5057115;28;20045;-67
2023/05/01 09:13:08;;;;;;;11.70;10.70;;;19.50;99.90;;;;;;5057995;28;20028;-69
2023/05/01 09:15:34;;;;;;;13.57;12.10;;;19.20;99.90;;;;;;5057174;28;20037;-69
2023/05/01 09:18:00;;;;;;;13.50;12.18;;;19.10;99.90;;;;;;5073605;28;20040;-76
2023/05/01 09:20:27;;;;;;;15.00;13.35;;;18.90;99.90;;;;;;5057069;28;20040;-68
2023/05/01 09:22:56;;;;;;;14.88;13.27;;;18.70;1.00;;;;;;5057540;28;20021;-75
2023/05/01 09:25:22;;;;;;;15.65;13.95;;;18.40;1.00;;;;;;5056916;28;20037;-69
2023/05/01 09:27:48;;;;;;;15.80;14.23;;;18.20;1.00;;;;;;5057148;28;20473;-71
2023/05/01 09:30:37;;;;;;;17.45;15.30;;;17.90;1.00;;;;;;5056951;28;20037;-67
2023/05/01 09:33:15;;;;;;;18.20;16.25;;;17.50;1.00;;;;;;5044052;28;20412;-71
2023/05/01 09:35:52;;;;;;;18.05;16.10;;;17.40;1.00;;;;;;5040282;28;20021;-70
2023/05/01 09:38:23;;;;;;;18.20;16.33;;;17.00;1.00;;;;;;5040074;28;20029;-72
2023/05/01 09:40:51;;;;;;;19.10;17.17;;;17.10;1.00;;;;;;5073270;28;20029;-75
2023/05/01 09:43:27;;;;;;;18.83;16.92;;;17.20;1.00;;;;;;5057111;28;20319;-68
2023/05/01 09:46:08;;;;;;;19.52;17.52;;;17.10;1.00;;;;;;5057347;28;20071;-66
2023/05/01 09:48:35;;;;;;;22.33;18.17;;;17.20;1.00;;;;;;5057404;28;20037;-67
2023/05/01 09:51:18;;;;;;;22.00;19.67;;;17.10;1.00;;;;;;5039858;28;20027;-70
2023/05/01 09:53:44;;;;;;;24.83;20.05;;;17.00;1.00;;;;;;5042385;28;20343;-68
2023/05/01 09:56:10;;;;;;;22.25;19.95;;;16.50;1.00;;;;;;5056628;28;20116;-68
2023/05/01 09:58:36;;;;;;;23.90;21.40;;;15.90;1.00;;;;;;5056649;28;20028;-65
2023/05/01 10:01:02;;;;;;;24.42;20.52;;;15.60;12.70;;;;;;5039847;28;20033;-66
2023/05/01 10:03:29;;;;;;;22.05;19.58;;;15.60;14.80;;;;;;5056109;28;20053;-69
2023/05/01 10:05:59;;;;;;;23.42;20.92;;;15.60;11.20;;;;;;5056514;28;20025;-65
2023/05/01 10:08:25;;;;;;;26.00;20.70;;;15.60;12.20;;;;;;5040131;28;20044;-68
2023/05/01 10:11:04;;;;;;;24.38;21.15;;;15.70;13.40;;;;;;5056073;28;20041;-69
2023/05/01 10:13:30;;;;;;;23.17;20.67;;;16.00;3.80;;;;;;5056873;28;20028;-68
2023/05/01 10:15:56;;;;;;;24.15;19.92;;;16.00;5.30;;;;;;5056057;28;20044;-65
2023/05/01 10:18:23;;;;;;;21.45;19.20;;;15.90;8.50;;;;;;5072977;28;20033;-72
2023/05/01 10:20:50;;;;;;;24.10;20.55;;;16.00;15.90;;;;;;5039411;28;20312;-66
2023/05/01 10:23:16;;;;;;;23.95;21.33;;;16.10;9.90;;;;;;5057412;28;20060;-71
2023/05/01 10:25:43;;;;;;;24.98;20.90;;;16.30;9.40;;;;;;5039819;28;20032;-67
2023/05/01 10:28:11;;;;;;;27.30;22.10;;;16.40;3.40;;;;;;5056617;28;20024;-65
2023/05/01 10:30:39;;;;;;;23.63;20.40;;;16.40;1.80;;;;;;5055969;28;20033;-66
2023/05/01 10:33:04;;;;;;;23.77;19.52;;;16.50;1.70;;;;;;5055990;28;20104;-68
2023/05/01 10:35:38;;;;;;;21.48;19.23;;;16.50;1.00;;;;;;5055889;28;20032;-66
2023/05/01 10:38:06;;;;;;;22.25;19.10;;;16.60;1.00;;;;;;5039262;28;20120;-68
2023/05/01 10:40:38;;;;;;;23.05;19.67;;;17.00;1.00;;;;;;5055917;28;20116;-66
2023/05/01 10:43:19;;;;;;;21.25;19.00;;;17.60;1.00;;;;;;5039240;28;20052;-67
2023/05/01 10:45:47;;;;;;;20.10;17.95;;;18.10;1.00;;;;;;5041784;28;20434;-65
2023/05/01 10:48:47;;;;;;;23.83;20.38;;;18.50;1.00;;;;;;5043232;28;20037;-69
2023/05/01 10:51:16;;;;;;;23.55;19.73;;;19.10;1.00;;;;;;5059790;28;20203;-66
2023/05/01 10:53:43;;;;;;;21.45;19.25;;;19.30;1.00;;;;;;5060587;28;20025;-66
2023/05/01 10:56:25;;;;;;;22.73;18.73;;;19.50;1.00;;;;;;5060424;28;20025;-66
2023/05/01 10:59:04;;;;;;;22.13;19.27;;;19.60;1.00;;;;;;5059820;28;20296;-66
2023/05/01 11:01:31;;;;;;;25.88;21.58;;;19.90;1.00;;;;;;5060507;28;20323;-66
2023/05/01 11:04:23;;;;;;;25.02;21.08;;;20.10;1.00;;;;;;5059389;28;20045;-66
2023/05/01 11:07:04;;;;;;;22.27;19.95;;;20.30;1.00;;;;;;5014022;28;20032;-73
2023/05/01 11:09:53;;;;;;;22.30;19.52;;;20.30;1.00;;;;;;5060300;28;20241;-67
2023/05/01 11:12:44;;;;;;;23.23;20.40;;;20.20;1.00;;;;;;5060663;28;20029;-68
2023/05/01 11:15:29;;;;;;;21.63;19.38;;;20.60;1.00;;;;;;5060197;28;20025;-65
2023/05/01 11:17:55;;;;;;;23.05;20.20;;;20.70;1.00;;;;;;5062117;28;20040;-67
2023/05/01 11:20:24;;;;;;;22.50;19.45;;;20.90;1.00;;;;;;5059393;28;20108;-69
2023/05/01 11:22:55;;;;;;;21.25;19.02;;;21.10;1.00;;;;;;5059216;28;20025;-70
2023/05/01 11:25:29;;;;;;;21.88;18.00;;;21.00;1.00;;;;;;5042605;28;20040;-68
2023/05/01 11:28:05;;;;;;;22.17;18.70;;;21.00;1.00;;;;;;5059974;28;20274;-67
2023/05/01 11:30:38;;;;;;;21.27;19.02;;;20.80;1.00;;;;;;5059622;28;20056;-67
2023/05/01 11:33:04;;;;;;;21.40;18.08;;;20.80;1.00;;;;;;5059783;28;20300;-66
2023/05/01 11:35:31;;;;;;;19.02;17.10;;;20.80;1.00;;;;;;5042377;28;20037;-67
2023/05/01 11:37:57;;;;;;;16.15;14.55;;;20.90;1.00;;;;;;5059674;28;20029;-67
2023/05/01 11:40:33;;;;;;;16.70;14.90;;;21.20;1.00;;;;;;5058946;28;20044;-68
2023/05/01 11:43:06;;;;;;;15.38;13.85;;;21.70;84.00;;;;;;5059030;28;20044;-71
2023/05/01 11:45:34;;;;;;;15.43;12.98;;;21.80;1.00;;;;;;5059970;28;20059;-67
2023/05/01 11:48:01;;;;;;;15.57;12.25;;;22.70;99.90;;;;;;5058893;28;20024;-67
2023/05/01 11:50:37;;;;;;;13.35;12.15;;;24.20;1.00;;;;;;5058626;28;20393;-67
2023/05/01 11:53:10;;;;;;;12.70;11.50;;;26.30;99.90;;;;;;5061757;28;20041;-71
2023/05/01 11:55:37;;;;;;;11.30;10.30;;;27.30;1.00;;;;;;5060239;28;20037;-72
2023/05/01 11:58:03;;;;;;;13.13;11.82;;;28.20;99.90;;;;;;5059851;28;20108;-70
2023/05/01 12:00:35;;;;;;;12.80;11.60;;;28.50;1.00;;;;;;5043621;28;20313;-72
2023/05/01 12:03:19;;;;;;;13.18;11.70;;;28.40;1.00;;;;;;5042618;28;20033;-71
2023/05/01 12:05:45;;;;;;;12.98;11.77;;;27.60;1.00;;;;;;5060796;28;20075;-71
2023/05/01 12:08:22;;;;;;;13.57;12.18;;;26.30;1.00;;;;;;5059289;28;20041;-72
2023/05/01 12:10:54;;;;;;;13.65;12.43;;;25.10;99.90;;;;;;5060750;28;20037;-70
2023/05/01 12:13:20;;;;;;;;;;;25.50;99.90;;;;;;5043720;28;20025;-69
2023/05/01 12:15:51;;;;;;;13.15;11.88;;;26.60;1.00;;;;;;5059811;28;20165;-70
2023/05/01 12:18:18;;;;;;;13.93;12.60;;;26.80;99.90;;;;;;5060410;28;20025;-73
2023/05/01 12:20:46;;;;;;;12.07;10.90;;;26.30;99.90;;;;;;5060490;28;20112;-72
2023/05/01 12:23:15;;;;;;;14.90;12.82;;;25.70;1.00;;;;;;5059423;28;20036;-65
2023/05/01 12:25:42;;;;;;;11.95;10.75;;;25.10;1.00;;;;;;5042622;28;20114;-68
2023/05/01 12:28:11;;;;;;;15.73;12.80;;;24.60;29.60;;;;;;5060088;28;20296;-74
2023/05/01 12:30:38;;;;;;;15.35;14.05;;;24.20;1.00;;;;;;5060015;28;20308;-68
2023/05/01 12:33:15;;;;;;;14.32;13.00;;;23.90;1.00;;;;;;5059167;28;20028;-71
2023/05/01 12:35:45;;;;;;;13.40;12.20;;;24.40;99.90;;;;;;5058924;28;20040;-70
2023/05/01 12:38:18;;;;;;;13.00;11.70;;;24.20;1.00;;;;;;5059481;28;20033;-68
2023/05/01 12:40:58;;;;;;;13.73;12.38;;;23.80;1.00;;;;;;5058552;28;20334;-70
2023/05/01 12:43:35;;;;;;;12.77;11.48;;;23.30;99.90;;;;;;5041076;28;20043;-66
2023/05/01 12:46:03;;;;;;;13.35;12.05;;;22.40;99.90;;;;;;5041617;28;20040;-66
2023/05/01 12:48:37;;;;;;;14.20;12.70;;;21.90;1.00;;;;;;5058443;28;20038;-67
2023/05/01 12:51:03;;;;;;;14.57;13.07;;;21.30;99.90;;;;;;5040962;28;20087;-68
2023/05/01 12:53:29;;;;;;;14.15;12.38;;;21.00;1.00;;;;;;5057816;28;20126;-66
2023/05/01 12:55:57;;;;;;;14.90;13.40;;;20.50;1.00;;;;;;5057618;28;20075;-66
2023/05/01 12:58:34;;;;;;;17.42;15.32;;;20.20;99.90;;;;;;5058273;28;20359;-68